createdAt,value
2019-05-07T00:01:37.396Z,20.30
2019-05-07T00:04:04.799Z,20.57
2019-05-07T00:06:32.640Z,18.77
2019-05-07T00:08:59.674Z,19.10
2019-05-07T00:11:27.119Z,20.17
2019-05-07T00:13:54.539Z,19.63
2019-05-07T00:16:22.546Z,19.63
2019-05-07T00:18:49.387Z,19.30
2019-05-07T00:21:16.819Z,19.97
2019-05-07T00:23:44.219Z,20.13
2019-05-07T00:26:13.202Z,20.37
2019-05-07T00:28:39.103Z,20.43
2019-05-07T00:31:06.528Z,19.93
2019-05-07T00:33:33.928Z,20.50
2019-05-07T00:36:02.589Z,20.20
2019-05-07T00:38:28.794Z,20.23
2019-05-07T00:40:59.226Z,21.00
2019-05-07T00:43:27.885Z,20.87
2019-05-07T00:45:56.986Z,19.80
2019-05-07T00:48:23.463Z,19.13
2019-05-07T00:50:50.249Z,18.87
2019-05-07T00:53:17.605Z,20.63
2019-05-07T00:55:45.124Z,19.90
2019-05-07T00:58:13.236Z,21.03
2019-05-07T01:00:41.925Z,20.97
2019-05-07T01:03:07.370Z,19.77
2019-05-07T01:05:34.814Z,20.53
2019-05-07T01:08:02.683Z,21.17
2019-05-07T01:10:29.676Z,21.03
2019-05-07T01:12:59.296Z,22.47
2019-05-07T01:15:30.675Z,21.70
2019-05-07T01:17:52.120Z,22.07
2019-05-07T01:20:19.398Z,22.17
2019-05-07T01:22:46.805Z,23.13
2019-05-07T01:25:14.231Z,23.30
2019-05-07T01:27:42.695Z,21.37
2019-05-07T01:30:09.117Z,22.30
2019-05-07T01:32:43.297Z,23.97
2019-05-07T01:35:12.850Z,22.70
2019-05-07T01:37:38.157Z,21.33
2019-05-07T01:40:05.624Z,22.67
2019-05-07T01:42:36.409Z,21.50
2019-05-07T01:45:02.416Z,21.37
2019-05-07T01:47:27.872Z,21.00
2019-05-07T01:49:55.349Z,22.63
2019-05-07T01:52:22.783Z,22.37
2019-05-07T01:54:52.094Z,22.30
2019-05-07T01:57:17.539Z,22.40
2019-05-07T01:59:44.979Z,22.67
2019-05-07T02:02:15.176Z,21.33
2019-05-07T02:04:42.781Z,20.43
2019-05-07T02:07:12.695Z,19.83
2019-05-07T02:09:46.113Z,20.63
2019-05-07T02:12:13.548Z,22.83
2019-05-07T02:14:42.275Z,19.83
2019-05-07T02:17:08.369Z,21.67
2019-05-07T02:19:35.817Z,21.23
2019-05-07T02:22:03.257Z,21.07
2019-05-07T02:24:30.661Z,21.63
2019-05-07T02:26:58.089Z,20.00
2019-05-07T02:29:25.509Z,21.50
2019-05-07T02:31:53.193Z,21.43
2019-05-07T02:34:23.230Z,20.23
2019-05-07T02:36:47.810Z,21.30
2019-05-07T02:39:24.405Z,18.63
2019-05-07T02:41:54.248Z,20.37
2019-05-07T02:44:19.204Z,21.73
2019-05-07T02:46:55.496Z,22.13
2019-05-07T02:49:23.515Z,19.53
2019-05-07T02:52:04.155Z,18.77
2019-05-07T02:54:33.033Z,20.87
2019-05-07T02:57:03.163Z,21.67
2019-05-07T02:59:27.629Z,21.63
2019-05-07T03:01:55.064Z,21.13
2019-05-07T03:04:25.179Z,21.30
2019-05-07T03:06:49.903Z,21.33
2019-05-07T03:09:17.346Z,19.73
2019-05-07T03:11:44.753Z,20.23
2019-05-07T03:14:13.971Z,19.63
2019-05-07T03:16:44.152Z,19.03
2019-05-07T03:19:07.018Z,20.57
2019-05-07T03:21:37.215Z,21.17
2019-05-07T03:24:14.076Z,19.87
2019-05-07T03:26:43.411Z,19.03
2019-05-07T03:29:08.488Z,18.47
2019-05-07T03:31:36.699Z,18.17
2019-05-07T03:34:16.534Z,18.77
2019-05-07T03:36:49.137Z,18.63
2019-05-07T03:39:15.619Z,18.03
2019-05-07T03:41:43.450Z,19.53
2019-05-07T03:44:16.324Z,17.83
2019-05-07T03:47:15.458Z,16.80
2019-05-07T03:49:43.111Z,18.57
2019-05-07T03:52:13.540Z,18.50
2019-05-07T03:54:37.803Z,18.83
2019-05-07T03:57:11.313Z,18.00
2019-05-07T03:59:34.189Z,18.73
2019-05-07T04:02:03.070Z,20.17
2019-05-07T04:04:27.440Z,20.27
2019-05-07T04:06:55.183Z,20.30
2019-05-07T04:09:24.162Z,22.27
2019-05-07T04:11:52.828Z,20.57
2019-05-07T04:14:17.486Z,21.07
2019-05-07T04:16:44.894Z,23.80
2019-05-07T04:19:13.256Z,22.73
2019-05-07T04:21:39.756Z,21.90
2019-05-07T04:24:20.086Z,20.10
2019-05-07T04:26:56.705Z,21.67
2019-05-07T04:29:24.143Z,25.77
2019-05-07T04:31:53.331Z,24.00
2019-05-07T04:34:18.977Z,21.90
2019-05-07T04:36:46.391Z,21.70
2019-05-07T04:39:13.849Z,23.57
2019-05-07T04:41:43.485Z,21.80
2019-05-07T04:44:08.647Z,21.93
2019-05-07T04:46:36.073Z,21.87
2019-05-07T04:49:03.966Z,22.03
2019-05-07T04:51:33.798Z,20.40
2019-05-07T04:54:03.544Z,21.53
2019-05-07T04:56:28.645Z,22.63
2019-05-07T04:58:56.066Z,23.43
2019-05-07T05:01:23.712Z,24.00
2019-05-07T05:03:53.216Z,23.23
2019-05-07T05:06:18.333Z,23.67
2019-05-07T05:08:45.815Z,22.00
2019-05-07T05:11:13.177Z,23.60
2019-05-07T05:13:44.013Z,23.27
2019-05-07T05:16:22.864Z,21.93
2019-05-07T05:18:51.730Z,22.40
2019-05-07T05:21:17.714Z,20.43
2019-05-07T05:23:45.123Z,20.77
2019-05-07T05:26:12.633Z,20.40
2019-05-07T05:28:41.916Z,18.53
2019-05-07T05:31:07.395Z,21.90
2019-05-07T05:33:34.835Z,21.10
2019-05-07T05:36:03.062Z,17.47
2019-05-07T05:38:29.682Z,20.47
2019-05-07T05:40:57.100Z,18.67
2019-05-07T05:43:24.528Z,19.47
2019-05-07T05:45:54.438Z,22.20
2019-05-07T05:48:22.456Z,20.37
2019-05-07T05:50:55.228Z,21.27
2019-05-07T05:53:22.635Z,20.47
2019-05-07T05:55:50.085Z,21.30
2019-05-07T05:58:24.006Z,21.67
2019-05-07T06:01:02.462Z,21.17
2019-05-07T06:03:45.765Z,20.97
2019-05-07T06:06:15.653Z,21.80
2019-05-07T06:08:43.510Z,21.23
2019-05-07T06:11:28.876Z,22.00
2019-05-07T06:13:56.284Z,21.43
2019-05-07T06:16:23.723Z,22.43
2019-05-07T06:18:54.029Z,22.70
2019-05-07T06:21:27.425Z,21.80
2019-05-07T06:23:57.570Z,20.57
2019-05-07T06:26:25.015Z,22.23
2019-05-07T06:28:52.475Z,19.23
2019-05-07T06:31:22.012Z,21.07
2019-05-07T06:33:47.328Z,19.63
2019-05-07T06:36:14.779Z,19.10
2019-05-07T06:38:44.940Z,19.03
2019-05-07T06:41:12.372Z,18.17
2019-05-07T06:43:45.843Z,18.80
2019-05-07T06:46:13.257Z,20.17
2019-05-07T06:48:43.710Z,17.40
2019-05-07T06:51:08.132Z,17.73
2019-05-07T06:53:35.590Z,17.87
2019-05-07T06:56:03.232Z,20.33
2019-05-07T06:58:33.353Z,18.60
2019-05-07T07:01:06.788Z,19.67
2019-05-07T07:03:34.193Z,17.47
2019-05-07T07:06:02.696Z,19.63
2019-05-07T07:08:29.055Z,16.87
2019-05-07T07:10:59.636Z,18.13
2019-05-07T07:13:27.073Z,16.07
2019-05-07T07:15:54.489Z,16.60
2019-05-07T07:18:23.072Z,17.77
2019-05-07T07:20:49.369Z,17.30
2019-05-07T07:23:16.809Z,15.63
2019-05-07T07:25:44.220Z,16.07
2019-05-07T07:28:12.315Z,15.03
2019-05-07T07:30:57.312Z,14.73
2019-05-07T07:33:24.721Z,15.80
2019-05-07T07:35:52.174Z,15.43
2019-05-07T07:38:34.609Z,14.43
2019-05-07T07:41:07.922Z,13.30
2019-05-07T07:43:35.362Z,13.57
2019-05-07T07:46:02.822Z,13.93
2019-05-07T07:48:32.063Z,12.67
2019-05-07T07:50:57.683Z,12.37
2019-05-07T07:53:25.087Z,13.67
2019-05-07T07:56:12.100Z,15.17
2019-05-07T07:58:38.152Z,15.03
2019-05-07T08:01:05.597Z,16.03
2019-05-07T08:03:33.079Z,21.13
2019-05-07T08:06:02.211Z,15.70
2019-05-07T08:08:27.909Z,15.67
2019-05-07T08:10:55.335Z,17.47
2019-05-07T08:13:23.036Z,15.73
2019-05-07T08:15:51.940Z,15.43
2019-05-07T08:18:17.666Z,15.67
2019-05-07T08:20:45.059Z,16.30
2019-05-07T08:23:12.503Z,15.80
2019-05-07T08:25:48.529Z,16.57
2019-05-07T08:28:15.960Z,16.03
2019-05-07T08:30:43.363Z,15.63
2019-05-07T08:33:16.823Z,13.13
2019-05-07T08:35:44.232Z,14.07
2019-05-07T08:38:12.781Z,14.20
2019-05-07T08:40:39.071Z,13.73
2019-05-07T08:43:06.491Z,13.80
2019-05-07T08:45:48.921Z,13.10
2019-05-07T08:48:25.570Z,14.53
2019-05-07T08:50:53.009Z,11.83
2019-05-07T08:53:22.371Z,9.40
2019-05-07T08:55:48.831Z,11.60
2019-05-07T08:58:16.257Z,11.90
2019-05-07T09:00:43.696Z,12.03
2019-05-07T09:03:20.089Z,10.73
2019-05-07T09:05:38.539Z,9.67
2019-05-07T09:08:05.965Z,10.03
2019-05-07T09:10:33.383Z,11.20
2019-05-07T09:13:02.598Z,11.00
2019-05-07T09:15:28.264Z,11.37
2019-05-07T09:17:55.672Z,10.90
2019-05-07T09:20:23.124Z,10.60
2019-05-07T09:22:51.814Z,10.40
2019-05-07T09:25:17.956Z,9.60
2019-05-07T09:27:45.405Z,8.77
2019-05-07T09:30:32.699Z,7.97
2019-05-07T09:33:02.519Z,11.47
2019-05-07T09:35:32.093Z,8.47
2019-05-07T09:37:58.490Z,7.77
2019-05-07T09:40:25.896Z,8.50
2019-05-07T09:42:53.346Z,8.27
2019-05-07T09:45:22.494Z,7.30
2019-05-07T09:47:48.206Z,8.10
2019-05-07T09:50:15.608Z,8.57
2019-05-07T09:52:43.061Z,6.40
2019-05-07T09:55:16.669Z,5.97
2019-05-07T09:57:37.864Z,5.50
2019-05-07T10:00:05.284Z,5.53
2019-05-07T10:02:32.691Z,4.40
2019-05-07T10:05:02.042Z,5.53
2019-05-07T10:07:27.537Z,5.33
2019-05-07T10:09:54.985Z,6.07
2019-05-07T10:12:28.611Z,5.40
2019-05-07T10:14:56.053Z,6.40
2019-05-07T10:17:26.223Z,7.00
2019-05-07T10:19:53.658Z,6.47
2019-05-07T10:22:22.770Z,6.47
2019-05-07T10:24:48.513Z,7.47
2019-05-07T10:27:15.943Z,6.33
2019-05-07T10:29:43.348Z,6.57
2019-05-07T10:32:12.834Z,7.43
2019-05-07T10:34:38.222Z,6.17
2019-05-07T10:37:05.638Z,6.00
2019-05-07T10:39:33.083Z,5.90
2019-05-07T10:42:01.843Z,5.47
2019-05-07T10:44:27.918Z,5.87
2019-05-07T10:47:13.499Z,6.63
2019-05-07T10:49:43.993Z,5.57
2019-05-07T10:52:12.591Z,5.87
2019-05-07T10:54:38.847Z,5.87
2019-05-07T10:57:06.275Z,5.73
2019-05-07T10:59:33.690Z,5.60
2019-05-07T11:02:04.159Z,5.77
2019-05-07T11:04:40.159Z,5.63
2019-05-07T11:06:58.989Z,6.20
2019-05-07T11:09:26.397Z,6.50
2019-05-07T11:11:53.817Z,6.80
2019-05-07T11:14:21.720Z,6.27
2019-05-07T11:16:48.654Z,5.97
2019-05-07T11:19:18.781Z,6.63
2019-05-07T11:21:43.525Z,5.83
2019-05-07T11:24:12.091Z,5.13
2019-05-07T11:26:38.378Z,5.77
2019-05-07T11:29:05.810Z,6.03
2019-05-07T11:31:35.894Z,6.00
2019-05-07T11:34:03.336Z,5.77
2019-05-07T11:36:32.073Z,6.30
2019-05-07T11:38:58.178Z,5.43
2019-05-07T11:41:28.192Z,6.20
2019-05-07T11:43:58.611Z,5.83
2019-05-07T11:46:26.026Z,6.07
2019-05-07T11:48:53.456Z,6.10
2019-05-07T11:51:23.307Z,5.43
2019-05-07T11:54:09.150Z,5.77
2019-05-07T11:56:36.875Z,5.07
2019-05-07T11:59:04.307Z,5.30
2019-05-07T12:01:43.588Z,5.13
2019-05-07T12:03:59.196Z,5.43
2019-05-07T12:06:26.639Z,5.10
2019-05-07T12:08:54.061Z,4.77
2019-05-07T12:11:21.856Z,5.10
2019-05-07T12:13:48.896Z,5.27
2019-05-07T12:16:16.320Z,4.93
2019-05-07T12:18:43.706Z,5.13
2019-05-07T12:21:18.232Z,5.20
2019-05-07T12:23:38.571Z,5.53
2019-05-07T12:26:05.977Z,6.03
2019-05-07T12:28:34.281Z,6.07
2019-05-07T12:31:07.315Z,6.03
2019-05-07T12:33:42.802Z,6.20
2019-05-07T12:36:08.281Z,5.90
2019-05-07T12:38:35.718Z,6.13
2019-05-07T12:41:03.157Z,5.20
2019-05-07T12:43:31.915Z,4.63
2019-05-07T12:45:57.981Z,5.13
2019-05-07T12:48:25.406Z,5.40
2019-05-07T12:50:52.850Z,5.50
2019-05-07T12:53:38.757Z,5.77
2019-05-07T12:56:06.183Z,5.30
2019-05-07T12:58:33.623Z,5.27
2019-05-07T13:01:03.721Z,5.37
2019-05-07T13:03:36.911Z,5.40
2019-05-07T13:06:04.355Z,5.23
2019-05-07T13:08:32.917Z,5.13
2019-05-07T13:10:59.195Z,4.50
2019-05-07T13:13:26.595Z,4.23
2019-05-07T13:15:54.060Z,4.93
2019-05-07T13:18:22.628Z,5.07
2019-05-07T13:20:48.970Z,4.63
2019-05-07T13:23:16.326Z,4.83
2019-05-07T13:25:43.765Z,4.80
2019-05-07T13:28:11.844Z,5.53
2019-05-07T13:30:38.612Z,4.93
2019-05-07T13:33:06.078Z,5.07
2019-05-07T13:35:33.519Z,5.20
2019-05-07T13:38:00.923Z,5.07
2019-05-07T13:40:37.003Z,4.60
2019-05-07T13:43:04.435Z,4.60
2019-05-07T13:45:31.873Z,4.37
2019-05-07T13:47:59.295Z,4.50
2019-05-07T13:50:26.701Z,4.60
2019-05-07T13:52:54.121Z,4.43
2019-05-07T13:55:21.942Z,4.20
2019-05-07T13:57:48.973Z,4.80
2019-05-07T14:00:16.393Z,4.50
2019-05-07T14:02:43.803Z,5.30
2019-05-07T14:05:14.071Z,4.67
2019-05-07T14:07:38.662Z,4.57
2019-05-07T14:10:06.136Z,4.70
2019-05-07T14:12:33.863Z,4.37
2019-05-07T14:15:02.150Z,4.57
2019-05-07T14:17:28.381Z,5.07
2019-05-07T14:19:55.817Z,4.53
2019-05-07T14:22:23.275Z,4.83
2019-05-07T14:24:52.726Z,4.37
2019-05-07T14:27:18.111Z,4.40
2019-05-07T14:29:45.574Z,4.57
2019-05-07T14:32:31.399Z,5.40
2019-05-07T14:35:02.111Z,4.87
2019-05-07T14:37:28.939Z,4.30
2019-05-07T14:39:56.381Z,4.83
2019-05-07T14:42:24.101Z,4.53
2019-05-07T14:44:52.768Z,4.67
2019-05-07T14:47:18.983Z,4.43
2019-05-07T14:49:46.416Z,5.23
2019-05-07T14:52:13.883Z,4.80
2019-05-07T14:54:42.827Z,4.90
2019-05-07T14:57:08.723Z,5.27
2019-05-07T14:59:36.169Z,4.90
2019-05-07T15:02:03.574Z,5.47
2019-05-07T15:04:31.030Z,5.13
2019-05-07T15:07:02.522Z,4.97
2019-05-07T15:09:28.676Z,4.93
2019-05-07T15:11:56.081Z,5.10
2019-05-07T15:14:23.501Z,4.70
2019-05-07T15:16:50.936Z,4.40
2019-05-07T15:19:18.349Z,4.90
2019-05-07T15:21:45.782Z,5.30
2019-05-07T15:24:13.197Z,5.10
2019-05-07T15:26:41.936Z,4.80
2019-05-07T15:29:08.124Z,5.47
2019-05-07T15:31:35.543Z,4.63
2019-05-07T15:34:03.071Z,4.63
2019-05-07T15:36:31.934Z,4.50
2019-05-07T15:38:57.846Z,5.00
2019-05-07T15:41:25.280Z,5.13
2019-05-07T15:43:52.700Z,4.90
2019-05-07T15:46:20.137Z,5.27
2019-05-07T15:48:47.581Z,5.40
2019-05-07T15:51:16.930Z,5.33
2019-05-07T15:53:42.770Z,4.93
2019-05-07T15:56:09.881Z,5.70
2019-05-07T15:58:37.277Z,5.00
2019-05-07T16:01:04.707Z,5.20
2019-05-07T16:03:32.205Z,5.47
2019-05-07T16:06:03.545Z,5.20
2019-05-07T16:08:26.969Z,5.03
2019-05-07T16:10:54.398Z,5.30
2019-05-07T16:13:22.375Z,5.10
2019-05-07T16:15:49.248Z,5.17
2019-05-07T16:18:23.832Z,5.60
2019-05-07T16:20:52.266Z,4.73
2019-05-07T16:23:18.293Z,5.60
2019-05-07T16:25:45.445Z,4.80
2019-05-07T16:28:12.925Z,5.23
2019-05-07T16:30:40.293Z,4.73
2019-05-07T16:33:07.738Z,5.07
2019-05-07T16:35:35.184Z,5.00
2019-05-07T16:38:02.600Z,5.03
2019-05-07T16:40:32.115Z,5.10
2019-05-07T16:42:57.475Z,5.20
2019-05-07T16:45:24.905Z,5.20
2019-05-07T16:47:52.326Z,4.80
2019-05-07T16:50:22.207Z,5.40
2019-05-07T16:52:47.221Z,5.70
2019-05-07T16:55:14.645Z,5.50
2019-05-07T16:57:42.413Z,5.70
2019-05-07T17:00:09.530Z,5.53
2019-05-07T17:02:36.920Z,5.80
2019-05-07T17:05:06.901Z,5.47
2019-05-07T17:07:34.350Z,6.23
2019-05-07T17:10:02.613Z,5.23
2019-05-07T17:12:29.206Z,5.90
2019-05-07T17:14:56.621Z,5.77
2019-05-07T17:17:24.038Z,6.27
2019-05-07T17:19:53.850Z,6.37
2019-05-07T17:22:18.909Z,5.83
2019-05-07T17:24:46.328Z,5.87
2019-05-07T17:27:13.737Z,6.13
2019-05-07T17:29:42.941Z,6.83
2019-05-07T17:32:08.584Z,6.00
2019-05-07T17:34:36.026Z,6.60
2019-05-07T17:37:03.432Z,5.90
2019-05-07T17:39:32.156Z,5.77
2019-05-07T17:41:58.310Z,5.33
2019-05-07T17:44:25.735Z,5.63
2019-05-07T17:46:53.154Z,6.07
2019-05-07T17:49:21.891Z,6.53
2019-05-07T17:51:48.006Z,6.03
2019-05-07T17:54:15.458Z,6.73
2019-05-07T17:56:42.858Z,5.83
2019-05-07T17:59:12.172Z,6.40
2019-05-07T18:01:41.975Z,5.73
2019-05-07T18:04:08.072Z,6.33
2019-05-07T18:06:35.475Z,6.53
2019-05-07T18:09:03.112Z,6.67
2019-05-07T18:11:32.318Z,7.27
2019-05-07T18:13:57.776Z,6.60
2019-05-07T18:16:25.206Z,6.37
2019-05-07T18:18:52.698Z,6.67
2019-05-07T18:21:21.884Z,6.53
2019-05-07T18:23:47.498Z,6.20
2019-05-07T18:26:27.329Z,6.53
2019-05-07T18:28:42.368Z,5.93
2019-05-07T18:31:09.777Z,6.50
2019-05-07T18:33:37.208Z,6.80
2019-05-07T18:36:04.605Z,7.00
2019-05-07T18:38:32.899Z,6.90
2019-05-07T18:40:59.451Z,7.67
2019-05-07T18:43:26.854Z,6.80
2019-05-07T18:45:54.471Z,6.60
2019-05-07T18:48:22.391Z,6.63
2019-05-07T18:50:49.332Z,6.53
2019-05-07T18:53:16.797Z,6.23
2019-05-07T18:55:44.231Z,6.33
2019-05-07T18:58:13.387Z,6.60
2019-05-07T19:00:42.428Z,6.10
2019-05-07T19:03:09.073Z,6.87
2019-05-07T19:05:36.518Z,6.57
2019-05-07T19:08:08.095Z,6.77
2019-05-07T19:10:32.923Z,7.20
2019-05-07T19:12:58.832Z,6.93
2019-05-07T19:15:26.285Z,7.17
2019-05-07T19:17:53.758Z,7.23
2019-05-07T19:20:21.816Z,7.57
2019-05-07T19:22:48.715Z,6.53
2019-05-07T19:25:16.182Z,7.23
2019-05-07T19:27:43.713Z,7.77
2019-05-07T19:30:12.575Z,7.57
2019-05-07T19:32:38.812Z,7.10
2019-05-07T19:35:06.324Z,7.77
2019-05-07T19:37:33.724Z,7.70
2019-05-07T19:40:02.030Z,7.67
2019-05-07T19:42:28.600Z,8.03
2019-05-07T19:44:56.010Z,8.23
2019-05-07T19:47:23.482Z,9.43
2019-05-07T19:49:52.484Z,9.30
2019-05-07T19:52:18.299Z,7.60
2019-05-07T19:54:58.034Z,8.17
2019-05-07T19:57:13.171Z,7.80
2019-05-07T19:59:42.785Z,7.80
2019-05-07T20:02:08.022Z,7.87
2019-05-07T20:04:35.427Z,8.80
2019-05-07T20:07:02.988Z,8.50
2019-05-07T20:09:32.322Z,8.93
2019-05-07T20:11:57.844Z,8.57
2019-05-07T20:14:25.292Z,9.23
2019-05-07T20:16:53.263Z,8.80
2019-05-07T20:19:20.098Z,8.80
2019-05-07T20:21:47.534Z,9.40
2019-05-07T20:24:14.959Z,8.80
2019-05-07T20:26:43.084Z,8.73
2019-05-07T20:29:12.162Z,8.53
2019-05-07T20:31:37.238Z,8.83
2019-05-07T20:34:04.673Z,8.90
2019-05-07T20:36:32.714Z,10.07
2019-05-07T20:38:59.528Z,9.03
2019-05-07T20:41:26.978Z,9.40
2019-05-07T20:43:54.410Z,9.50
2019-05-07T20:46:21.858Z,9.63
2019-05-07T20:48:49.281Z,9.63
2019-05-07T20:51:18.870Z,9.63
2019-05-07T20:53:49.181Z,9.70
2019-05-07T20:56:16.624Z,10.33
2019-05-07T20:58:44.042Z,9.40
2019-05-07T21:01:12.429Z,9.40
2019-05-07T21:03:38.939Z,8.83
2019-05-07T21:06:06.402Z,9.63
2019-05-07T21:08:33.859Z,10.70
2019-05-07T21:11:02.527Z,10.13
2019-05-07T21:13:33.939Z,9.07
2019-05-07T21:15:56.138Z,8.80
2019-05-07T21:18:23.707Z,8.53
2019-05-07T21:20:53.005Z,8.77
2019-05-07T21:23:18.429Z,8.53
2019-05-07T21:25:46.125Z,8.90
2019-05-07T21:28:13.309Z,9.27
2019-05-07T21:30:42.732Z,8.43
2019-05-07T21:33:08.141Z,8.57
2019-05-07T21:35:35.553Z,8.37
2019-05-07T21:38:02.989Z,8.30
2019-05-07T21:40:32.053Z,9.13
2019-05-07T21:42:57.853Z,9.00
2019-05-07T21:45:25.257Z,8.80
2019-05-07T21:47:54.511Z,8.67
2019-05-07T21:50:21.882Z,9.03
2019-05-07T21:52:51.472Z,8.90
2019-05-07T21:55:23.515Z,9.33
2019-05-07T21:58:03.050Z,9.07
2019-05-07T22:00:32.358Z,9.33
2019-05-07T22:02:57.892Z,8.50
2019-05-07T22:05:25.313Z,8.63
2019-05-07T22:07:54.417Z,8.33
2019-05-07T22:10:22.109Z,9.40
2019-05-07T22:12:47.597Z,9.10
2019-05-07T22:15:15.012Z,8.80
2019-05-07T22:17:44.329Z,9.60
2019-05-07T22:20:11.896Z,9.50
2019-05-07T22:22:37.295Z,9.60
2019-05-07T22:25:05.297Z,9.03
2019-05-07T22:27:32.733Z,9.80
2019-05-07T22:30:02.107Z,8.90
2019-05-07T22:32:45.001Z,9.37
2019-05-07T22:35:12.410Z,9.17
2019-05-07T22:37:41.260Z,9.67
2019-05-07T22:40:08.668Z,9.03
2019-05-07T22:42:36.077Z,9.50
2019-05-07T22:45:03.529Z,9.53
2019-05-07T22:47:32.604Z,9.43
2019-05-07T22:49:58.354Z,10.53
2019-05-07T22:52:25.756Z,9.43
2019-05-07T22:54:53.192Z,9.30
2019-05-07T22:57:35.435Z,9.83
2019-05-07T23:00:04.713Z,10.60
2019-05-07T23:02:32.124Z,10.57
2019-05-07T23:04:57.715Z,9.20
2019-05-07T23:07:25.129Z,9.40
2019-05-07T23:09:52.543Z,10.03
2019-05-07T23:12:21.863Z,10.33
2019-05-07T23:14:47.437Z,9.50
2019-05-07T23:17:14.860Z,10.70
2019-05-07T23:19:42.269Z,9.37
2019-05-07T23:22:13.407Z,9.23
2019-05-07T23:24:37.121Z,10.43
2019-05-07T23:27:04.565Z,10.03
2019-05-07T23:29:33.041Z,10.37
2019-05-07T23:31:59.397Z,9.87
2019-05-07T23:34:26.841Z,10.20
2019-05-07T23:36:54.286Z,10.13
2019-05-07T23:39:21.682Z,9.90
2019-05-07T23:42:07.504Z,10.37
2019-05-07T23:44:34.921Z,10.33
2019-05-07T23:47:02.844Z,9.97
2019-05-07T23:49:32.015Z,10.43
2019-05-07T23:51:57.226Z,11.60
2019-05-07T23:54:24.637Z,10.77
2019-05-07T23:57:04.895Z,10.53
2019-05-07T23:59:19.477Z,11.03
